UAE724 HAAB-OMDB
Flight info
| Callsign | UAE724 |
|---|---|
| Flight time | 3h 41m |
| Altitude | 35000 |
| Route | MIWAS2A MIWAS UT667 DWA UW885 ARSHI/N0487F360 UW885 HARGA/N0486F350 UB404 DEMGO B404 RIGAM B400 DAXAM Y414 DEDSO R401 VELIK/N0479F360 R401 MUSAP/N0475F350 R401 PEDOG Q308 KIPOK Q568 IMPED |
| Aircraft | B77W/H-SDE1E2E3FGHIJ2J3J4J5M1RWXY/LB1D1 |
Departure
| Time | 2026-04-25 14:39 |
|---|---|
| Airport | Addis Ababa Bole International Airport (HAAB) |
Arrival
| Time | 2026-04-25 18:21 |
|---|---|
| Airport | Dubai International Airport (OMDB) |
| Time | Latitude | Longitude | Altitude | Speed | Heading |
|---|---|---|---|---|---|
| 2026-04-25 14:33 | 8.97983 | 38.79139 | 7639 ft | 17 kts | 253° |
| 2026-04-25 14:34 | 8.97952 | 38.79036 | 7642 ft | 12 kts | 253° |
| 2026-04-25 14:34 | 8.97931 | 38.78962 | 7644 ft | 10 kts | 253° |
| 2026-04-25 14:34 | 8.97912 | 38.78896 | 7644 ft | 9 kts | 253° |
| 2026-04-25 14:34 | 8.97893 | 38.78831 | 7644 ft | 9 kts | 253° |
| 2026-04-25 14:35 | 8.97867 | 38.78758 | 7644 ft | 10 kts | 229° |
| 2026-04-25 14:35 | 8.97788 | 38.78756 | 7641 ft | 13 kts | 164° |
| 2026-04-25 14:35 | 8.97689 | 38.78785 | 7638 ft | 8 kts | 163° |
| 2026-04-25 14:35 | 8.97616 | 38.78808 | 7636 ft | 14 kts | 163° |
| 2026-04-25 14:36 | 8.97551 | 38.78759 | 7634 ft | 14 kts | 252° |
| 2026-04-25 14:36 | 8.97516 | 38.78645 | 7630 ft | 19 kts | 254° |
| 2026-04-25 14:36 | 8.97472 | 38.78492 | 7623 ft | 25 kts | 253° |
| 2026-04-25 14:36 | 8.97421 | 38.78320 | 7617 ft | 21 kts | 253° |
| 2026-04-25 14:37 | 8.97349 | 38.78283 | 7611 ft | 13 kts | 153° |
| 2026-04-25 14:37 | 8.97261 | 38.78353 | 7605 ft | 16 kts | 138° |
| 2026-04-25 14:37 | 8.97253 | 38.78417 | 7611 ft | 5 kts | 72° |
| 2026-04-25 14:37 | 8.97262 | 38.78446 | 7614 ft | 0 kts | 73° |
| 2026-04-25 14:38 | 8.97262 | 38.78445 | 7613 ft | 0 kts | 73° |
| 2026-04-25 14:38 | 8.97263 | 38.78448 | 7614 ft | 1 kts | 73° |
| 2026-04-25 14:38 | 8.97306 | 38.78599 | 7626 ft | 51 kts | 73° |
| 2026-04-25 14:38 | 8.97472 | 38.79166 | 7635 ft | 115 kts | 75° |
| 2026-04-25 14:39 | 8.97749 | 38.80129 | 7637 ft | 171 kts | 74° |
| 2026-04-25 14:39 | 8.98121 | 38.81399 | 7937 ft | 194 kts | 75° |
| 2026-04-25 14:39 | 8.98497 | 38.82713 | 8657 ft | 202 kts | 73° |
| 2026-04-25 14:39 | 8.98916 | 38.84127 | 9178 ft | 213 kts | 75° |
| 2026-04-25 14:40 | 8.99337 | 38.85571 | 9700 ft | 218 kts | 74° |
| 2026-04-25 14:40 | 8.99760 | 38.87040 | 10337 ft | 217 kts | 72° |
| 2026-04-25 14:40 | 9.00192 | 38.88514 | 10884 ft | 221 kts | 73° |
| 2026-04-25 14:40 | 9.00639 | 38.90049 | 11183 ft | 239 kts | 72° |
| 2026-04-25 14:41 | 9.01135 | 38.91746 | 11390 ft | 262 kts | 73° |
| 2026-04-25 14:41 | 9.01671 | 38.93586 | 11698 ft | 283 kts | 72° |
| 2026-04-25 14:41 | 9.02241 | 38.95544 | 12009 ft | 304 kts | 73° |
| 2026-04-25 14:41 | 9.02868 | 38.97700 | 12337 ft | 325 kts | 72° |
| 2026-04-25 14:42 | 9.03524 | 38.99955 | 12679 ft | 345 kts | 72° |
| 2026-04-25 14:42 | 9.03754 | 39.00744 | 12789 ft | 351 kts | 72° |
| 2026-04-25 14:42 | 9.04937 | 39.04826 | 13370 ft | 379 kts | 73° |
| 2026-04-25 14:42 | 9.05607 | 39.07428 | 14003 ft | 386 kts | 74° |
| 2026-04-25 14:43 | 9.06273 | 39.10065 | 14830 ft | 386 kts | 75° |
| 2026-04-25 14:43 | 9.06939 | 39.12697 | 15601 ft | 388 kts | 75° |
| 2026-04-25 14:43 | 9.07609 | 39.15334 | 16290 ft | 392 kts | 75° |
| 2026-04-25 14:43 | 9.08287 | 39.18001 | 16987 ft | 395 kts | 75° |
| 2026-04-25 14:44 | 9.08975 | 39.20702 | 17661 ft | 398 kts | 75° |
| 2026-04-25 14:44 | 9.09666 | 39.23411 | 18287 ft | 402 kts | 75° |
| 2026-04-25 14:44 | 9.10374 | 39.26189 | 18884 ft | 407 kts | 75° |
| 2026-04-25 14:44 | 9.11078 | 39.28949 | 19449 ft | 412 kts | 75° |
| 2026-04-25 14:45 | 9.11799 | 39.31778 | 20040 ft | 415 kts | 75° |
| 2026-04-25 14:45 | 9.12525 | 39.34622 | 20582 ft | 420 kts | 75° |
| 2026-04-25 14:45 | 9.13252 | 39.37474 | 21129 ft | 424 kts | 75° |
| 2026-04-25 14:45 | 9.13992 | 39.40378 | 21687 ft | 428 kts | 75° |
| 2026-04-25 14:46 | 9.14744 | 39.43329 | 22216 ft | 432 kts | 75° |
| 2026-04-25 14:46 | 9.15497 | 39.46285 | 22736 ft | 436 kts | 75° |
| 2026-04-25 14:46 | 9.16252 | 39.49249 | 23217 ft | 441 kts | 75° |
| 2026-04-25 14:46 | 9.17025 | 39.52287 | 23699 ft | 445 kts | 75° |
| 2026-04-25 14:47 | 9.17798 | 39.55325 | 24191 ft | 450 kts | 75° |
| 2026-04-25 14:47 | 9.18061 | 39.56357 | 24345 ft | 451 kts | 75° |
| 2026-04-25 14:47 | 9.19362 | 39.61473 | 25171 ft | 458 kts | 75° |
| 2026-04-25 14:47 | 9.20164 | 39.64627 | 25626 ft | 463 kts | 75° |
| 2026-04-25 14:48 | 9.20966 | 39.67782 | 26108 ft | 467 kts | 75° |
| 2026-04-25 14:48 | 9.21785 | 39.71006 | 26621 ft | 470 kts | 75° |
| 2026-04-25 14:48 | 9.22599 | 39.74211 | 27085 ft | 475 kts | 75° |
| 2026-04-25 14:48 | 9.23422 | 39.77454 | 27537 ft | 479 kts | 75° |
| 2026-04-25 14:49 | 9.24254 | 39.80735 | 28015 ft | 483 kts | 75° |
| 2026-04-25 14:49 | 9.25094 | 39.84045 | 28476 ft | 488 kts | 75° |
| 2026-04-25 14:49 | 9.25930 | 39.87347 | 28942 ft | 492 kts | 75° |
| 2026-04-25 14:49 | 9.26786 | 39.90725 | 29447 ft | 495 kts | 74° |
| 2026-04-25 14:50 | 9.27640 | 39.94095 | 30124 ft | 494 kts | 74° |
| 2026-04-25 14:50 | 9.28483 | 39.97427 | 30865 ft | 491 kts | 73° |
| 2026-04-25 14:50 | 9.29323 | 40.00748 | 31572 ft | 489 kts | 73° |
| 2026-04-25 14:50 | 9.30160 | 40.04057 | 32220 ft | 487 kts | 73° |
| 2026-04-25 14:51 | 9.31002 | 40.07388 | 32809 ft | 487 kts | 72° |
| 2026-04-25 14:51 | 9.31835 | 40.10681 | 33508 ft | 484 kts | 73° |
| 2026-04-25 14:51 | 9.32664 | 40.13968 | 34311 ft | 480 kts | 73° |
| 2026-04-25 14:51 | 9.33491 | 40.17241 | 34969 ft | 477 kts | 73° |
| 2026-04-25 14:52 | 9.35123 | 40.23705 | 35037 ft | 476 kts | 73° |
| 2026-04-25 14:52 | 9.36217 | 40.28042 | 35039 ft | 475 kts | 73° |
| 2026-04-25 14:53 | 9.38436 | 40.36845 | 35059 ft | 475 kts | 73° |
| 2026-04-25 14:53 | 9.40082 | 40.43380 | 35073 ft | 476 kts | 73° |
| 2026-04-25 14:54 | 9.41296 | 40.49983 | 35085 ft | 477 kts | 77° |
| 2026-04-25 14:54 | 9.42405 | 40.56606 | 35115 ft | 476 kts | 77° |
| 2026-04-25 14:55 | 9.43525 | 40.63176 | 35096 ft | 476 kts | 77° |
| 2026-04-25 14:55 | 9.44665 | 40.69815 | 35108 ft | 476 kts | 77° |
| 2026-04-25 14:56 | 9.45806 | 40.76426 | 35120 ft | 477 kts | 77° |
| 2026-04-25 14:56 | 9.46953 | 40.83062 | 35107 ft | 476 kts | 77° |
| 2026-04-25 14:57 | 9.48094 | 40.89657 | 35128 ft | 475 kts | 77° |
| 2026-04-25 14:57 | 9.49238 | 40.96279 | 35108 ft | 476 kts | 77° |
| 2026-04-25 14:58 | 9.50378 | 41.02877 | 35098 ft | 476 kts | 77° |
| 2026-04-25 14:58 | 9.51515 | 41.09468 | 35112 ft | 476 kts | 77° |
| 2026-04-25 14:59 | 9.52652 | 41.16063 | 35119 ft | 476 kts | 77° |
| 2026-04-25 14:59 | 9.53791 | 41.22678 | 35133 ft | 476 kts | 77° |
| 2026-04-25 15:00 | 9.54926 | 41.29273 | 35143 ft | 476 kts | 77° |
| 2026-04-25 15:00 | 9.56059 | 41.35871 | 35130 ft | 476 kts | 77° |
| 2026-04-25 15:01 | 9.57193 | 41.42480 | 35130 ft | 475 kts | 77° |
| 2026-04-25 15:01 | 9.58329 | 41.49106 | 35121 ft | 476 kts | 77° |
| 2026-04-25 15:02 | 9.59460 | 41.55709 | 35119 ft | 477 kts | 77° |
| 2026-04-25 15:02 | 9.60589 | 41.62312 | 35138 ft | 476 kts | 77° |
| 2026-04-25 15:03 | 9.61722 | 41.68944 | 35113 ft | 476 kts | 77° |
| 2026-04-25 15:03 | 9.62847 | 41.75539 | 35128 ft | 476 kts | 77° |
| 2026-04-25 15:04 | 9.63965 | 41.82125 | 35100 ft | 477 kts | 78° |
| 2026-04-25 15:04 | 9.64105 | 41.88861 | 35128 ft | 482 kts | 90° |
| 2026-04-25 15:05 | 9.63723 | 41.95625 | 35147 ft | 483 kts | 90° |
| 2026-04-25 15:06 | 9.63140 | 42.05765 | 35152 ft | 482 kts | 90° |
| 2026-04-25 15:06 | 9.62749 | 42.12544 | 35185 ft | 481 kts | 90° |
| 2026-04-25 15:07 | 9.62421 | 42.18213 | 35196 ft | 483 kts | 90° |
| 2026-04-25 15:07 | 9.61961 | 42.26121 | 35213 ft | 481 kts | 90° |
| 2026-04-25 15:08 | 9.61565 | 42.32917 | 35206 ft | 482 kts | 90° |
| 2026-04-25 15:08 | 9.61171 | 42.39655 | 35206 ft | 482 kts | 90° |
| 2026-04-25 15:09 | 9.60773 | 42.46441 | 35215 ft | 481 kts | 90° |
| 2026-04-25 15:09 | 9.60177 | 42.56558 | 35215 ft | 482 kts | 90° |
| 2026-04-25 15:10 | 9.59777 | 42.63320 | 35214 ft | 482 kts | 90° |
| 2026-04-25 15:11 | 9.59172 | 42.73498 | 35218 ft | 482 kts | 90° |
| 2026-04-25 15:11 | 9.58769 | 42.80246 | 35215 ft | 482 kts | 90° |
| 2026-04-25 15:12 | 9.58229 | 42.89274 | 35217 ft | 482 kts | 90° |
| 2026-04-25 15:12 | 9.57891 | 42.94898 | 35213 ft | 482 kts | 90° |
| 2026-04-25 15:13 | 9.57145 | 43.07259 | 35212 ft | 481 kts | 90° |
| 2026-04-25 15:14 | 9.56734 | 43.14026 | 35208 ft | 481 kts | 90° |
| 2026-04-25 15:14 | 9.56323 | 43.20780 | 35208 ft | 482 kts | 90° |
| 2026-04-25 15:15 | 9.55912 | 43.27518 | 35205 ft | 481 kts | 90° |
| 2026-04-25 15:15 | 9.55500 | 43.34260 | 35201 ft | 482 kts | 90° |
| 2026-04-25 15:16 | 9.55083 | 43.41036 | 35194 ft | 481 kts | 90° |
| 2026-04-25 15:16 | 9.54706 | 43.50051 | 35196 ft | 481 kts | 89° |
| 2026-04-25 15:17 | 9.54255 | 43.61297 | 35183 ft | 481 kts | 89° |
| 2026-04-25 15:18 | 9.53978 | 43.68040 | 35171 ft | 480 kts | 89° |
| 2026-04-25 15:18 | 9.53558 | 43.78185 | 35164 ft | 480 kts | 89° |
| 2026-04-25 15:19 | 9.53371 | 43.82669 | 35162 ft | 480 kts | 89° |
| 2026-04-25 15:19 | 9.52993 | 43.91656 | 35151 ft | 481 kts | 89° |
| 2026-04-25 15:20 | 9.52709 | 43.98371 | 35146 ft | 480 kts | 89° |
| 2026-04-25 15:20 | 9.52555 | 44.05113 | 35143 ft | 476 kts | 82° |
| 2026-04-25 15:21 | 9.53989 | 44.11583 | 35135 ft | 468 kts | 65° |
| 2026-04-25 15:21 | 9.56989 | 44.17362 | 35125 ft | 465 kts | 57° |
| 2026-04-25 15:22 | 9.60250 | 44.23029 | 35134 ft | 468 kts | 57° |
| 2026-04-25 15:22 | 9.61908 | 44.25907 | 35488 ft | 471 kts | 57° |
| 2026-04-25 15:22 | 9.63533 | 44.28730 | 36249 ft | 466 kts | 57° |
| 2026-04-25 15:23 | 9.65161 | 44.31560 | 36973 ft | 462 kts | 57° |
| 2026-04-25 15:23 | 9.66782 | 44.34374 | 37095 ft | 464 kts | 57° |
| 2026-04-25 15:23 | 9.70024 | 44.40007 | 37103 ft | 462 kts | 57° |
| 2026-04-25 15:24 | 9.73262 | 44.45634 | 37108 ft | 462 kts | 57° |
| 2026-04-25 15:24 | 9.75430 | 44.49404 | 37116 ft | 461 kts | 57° |
| 2026-04-25 15:25 | 9.79212 | 44.55981 | 37111 ft | 461 kts | 57° |
| 2026-04-25 15:25 | 9.82963 | 44.62510 | 37109 ft | 461 kts | 57° |
| 2026-04-25 15:26 | 9.86220 | 44.68180 | 37105 ft | 461 kts | 57° |
| 2026-04-25 15:26 | 9.89443 | 44.73795 | 37088 ft | 461 kts | 57° |
| 2026-04-25 15:27 | 9.92129 | 44.78476 | 37098 ft | 460 kts | 57° |
| 2026-04-25 15:28 | 9.97510 | 44.87859 | 37125 ft | 461 kts | 57° |
| 2026-04-25 15:28 | 10.00718 | 44.93457 | 37161 ft | 459 kts | 57° |
| 2026-04-25 15:29 | 10.03927 | 44.99059 | 37168 ft | 460 kts | 57° |
| 2026-04-25 15:29 | 10.06617 | 45.03759 | 37158 ft | 459 kts | 57° |
| 2026-04-25 15:30 | 10.09845 | 45.09399 | 37104 ft | 461 kts | 57° |
| 2026-04-25 15:30 | 10.13605 | 45.15973 | 37066 ft | 460 kts | 57° |
| 2026-04-25 15:31 | 10.16798 | 45.21560 | 37033 ft | 461 kts | 57° |
| 2026-04-25 15:31 | 10.20034 | 45.27222 | 36995 ft | 461 kts | 57° |
| 2026-04-25 15:32 | 10.23239 | 45.32834 | 36983 ft | 462 kts | 57° |
| 2026-04-25 15:32 | 10.26453 | 45.38466 | 36973 ft | 462 kts | 57° |
| 2026-04-25 15:33 | 10.31285 | 45.46936 | 36955 ft | 461 kts | 57° |
| 2026-04-25 15:33 | 10.34498 | 45.52573 | 36953 ft | 462 kts | 57° |
| 2026-04-25 15:34 | 10.37702 | 45.58196 | 36938 ft | 462 kts | 57° |
| 2026-04-25 15:34 | 10.39839 | 45.61948 | 36942 ft | 460 kts | 57° |
| 2026-04-25 15:35 | 10.45199 | 45.71365 | 36927 ft | 463 kts | 57° |
| 2026-04-25 15:36 | 10.50546 | 45.80767 | 36937 ft | 461 kts | 57° |
| 2026-04-25 15:36 | 10.53205 | 45.85446 | 36943 ft | 460 kts | 57° |
| 2026-04-25 15:37 | 10.56949 | 45.92035 | 36949 ft | 463 kts | 57° |
| 2026-04-25 15:37 | 10.60155 | 45.97685 | 36927 ft | 460 kts | 57° |
| 2026-04-25 15:38 | 10.62829 | 46.02396 | 36923 ft | 461 kts | 57° |
| 2026-04-25 15:38 | 10.66048 | 46.08072 | 36896 ft | 461 kts | 56° |
| 2026-04-25 15:39 | 10.69243 | 46.13707 | 36879 ft | 461 kts | 56° |
| 2026-04-25 15:39 | 10.72448 | 46.19364 | 36864 ft | 462 kts | 56° |
| 2026-04-25 15:40 | 10.75121 | 46.24085 | 36851 ft | 461 kts | 56° |
| 2026-04-25 15:40 | 10.79388 | 46.31623 | 36846 ft | 461 kts | 56° |
| 2026-04-25 15:41 | 10.82601 | 46.37233 | 36845 ft | 460 kts | 56° |
| 2026-04-25 15:41 | 10.85850 | 46.42848 | 36842 ft | 461 kts | 55° |
| 2026-04-25 15:42 | 10.88562 | 46.47541 | 36845 ft | 460 kts | 56° |
| 2026-04-25 15:42 | 10.92346 | 46.54094 | 36847 ft | 462 kts | 56° |
| 2026-04-25 15:43 | 10.95041 | 46.58768 | 36844 ft | 460 kts | 55° |
| 2026-04-25 15:43 | 10.98293 | 46.64407 | 36844 ft | 461 kts | 56° |
| 2026-04-25 15:44 | 11.01540 | 46.70042 | 36843 ft | 461 kts | 56° |
| 2026-04-25 15:44 | 11.05326 | 46.76617 | 36841 ft | 461 kts | 55° |
| 2026-04-25 15:45 | 11.08562 | 46.82240 | 36844 ft | 461 kts | 55° |
| 2026-04-25 15:45 | 11.10738 | 46.86023 | 36850 ft | 461 kts | 55° |
| 2026-04-25 15:46 | 11.14526 | 46.92612 | 36854 ft | 462 kts | 55° |
| 2026-04-25 15:46 | 11.17807 | 46.98320 | 36857 ft | 473 kts | 56° |
| 2026-04-25 15:47 | 11.21158 | 47.04153 | 36863 ft | 480 kts | 56° |
| 2026-04-25 15:47 | 11.25095 | 47.11016 | 36859 ft | 480 kts | 56° |
| 2026-04-25 15:48 | 11.28443 | 47.16855 | 36860 ft | 479 kts | 56° |
| 2026-04-25 15:48 | 11.31818 | 47.22742 | 36871 ft | 480 kts | 56° |
| 2026-04-25 15:49 | 11.34626 | 47.27646 | 36868 ft | 478 kts | 55° |
| 2026-04-25 15:49 | 11.38547 | 47.34493 | 36868 ft | 479 kts | 56° |
| 2026-04-25 15:50 | 11.41053 | 47.38869 | 36875 ft | 479 kts | 56° |
| 2026-04-25 15:50 | 11.44414 | 47.44741 | 36878 ft | 479 kts | 55° |
| 2026-04-25 15:51 | 11.47217 | 47.49641 | 36880 ft | 478 kts | 55° |
| 2026-04-25 15:51 | 11.51128 | 47.56482 | 36879 ft | 480 kts | 55° |
| 2026-04-25 15:52 | 11.54489 | 47.62367 | 36888 ft | 479 kts | 55° |
| 2026-04-25 15:52 | 11.57851 | 47.68254 | 36881 ft | 478 kts | 56° |
| 2026-04-25 15:53 | 11.61213 | 47.74145 | 36879 ft | 480 kts | 56° |
| 2026-04-25 15:53 | 11.65120 | 47.80998 | 36882 ft | 479 kts | 55° |
| 2026-04-25 15:54 | 11.68498 | 47.86926 | 36889 ft | 478 kts | 56° |
| 2026-04-25 15:54 | 11.71872 | 47.92851 | 36877 ft | 478 kts | 56° |
| 2026-04-25 15:55 | 11.74679 | 47.97781 | 36880 ft | 480 kts | 56° |
| 2026-04-25 15:55 | 11.78608 | 48.04686 | 36877 ft | 479 kts | 56° |
| 2026-04-25 15:56 | 11.81980 | 48.10619 | 36873 ft | 480 kts | 56° |
| 2026-04-25 15:56 | 11.84817 | 48.15612 | 36880 ft | 479 kts | 56° |
| 2026-04-25 15:57 | 11.88158 | 48.21496 | 36870 ft | 480 kts | 56° |
| 2026-04-25 15:57 | 11.92062 | 48.28374 | 36871 ft | 480 kts | 56° |
| 2026-04-25 15:58 | 11.94853 | 48.33296 | 36865 ft | 479 kts | 55° |
| 2026-04-25 15:58 | 11.97885 | 48.38645 | 36869 ft | 480 kts | 56° |
| 2026-04-25 15:59 | 12.01874 | 48.45687 | 36865 ft | 480 kts | 55° |
| 2026-04-25 15:59 | 12.05206 | 48.51573 | 36865 ft | 478 kts | 55° |
| 2026-04-25 16:00 | 12.07483 | 48.55500 | 36863 ft | 479 kts | 54° |
| 2026-04-25 16:00 | 12.12035 | 48.63306 | 36876 ft | 479 kts | 54° |
| 2026-04-25 16:01 | 12.15433 | 48.69143 | 36874 ft | 480 kts | 55° |
| 2026-04-25 16:01 | 12.18857 | 48.75031 | 36874 ft | 478 kts | 55° |
| 2026-04-25 16:02 | 12.22248 | 48.80867 | 36876 ft | 480 kts | 55° |
| 2026-04-25 16:02 | 12.25665 | 48.86753 | 36877 ft | 478 kts | 55° |
| 2026-04-25 16:03 | 12.29073 | 48.92627 | 36874 ft | 479 kts | 55° |
| 2026-04-25 16:03 | 12.32493 | 48.98526 | 36878 ft | 480 kts | 55° |
| 2026-04-25 16:04 | 12.35895 | 49.04397 | 36878 ft | 480 kts | 55° |
| 2026-04-25 16:04 | 12.39275 | 49.10235 | 36880 ft | 480 kts | 54° |
| 2026-04-25 16:05 | 12.42696 | 49.16146 | 36877 ft | 479 kts | 54° |
| 2026-04-25 16:06 | 12.47803 | 49.24979 | 36880 ft | 480 kts | 54° |
| 2026-04-25 16:06 | 12.51209 | 49.30874 | 36879 ft | 480 kts | 55° |
| 2026-04-25 16:07 | 12.54596 | 49.36740 | 36879 ft | 481 kts | 54° |
| 2026-04-25 16:07 | 12.57993 | 49.42629 | 36876 ft | 480 kts | 54° |
| 2026-04-25 16:08 | 12.61389 | 49.48518 | 36878 ft | 480 kts | 54° |
| 2026-04-25 16:08 | 12.64812 | 49.54458 | 36882 ft | 480 kts | 54° |
| 2026-04-25 16:09 | 12.68199 | 49.60340 | 36885 ft | 482 kts | 54° |
| 2026-04-25 16:09 | 12.71589 | 49.66230 | 36877 ft | 480 kts | 54° |
| 2026-04-25 16:10 | 12.74981 | 49.72128 | 36877 ft | 480 kts | 54° |
| 2026-04-25 16:10 | 12.78384 | 49.78049 | 36881 ft | 480 kts | 54° |
| 2026-04-25 16:11 | 12.81788 | 49.83975 | 36880 ft | 480 kts | 54° |
| 2026-04-25 16:11 | 12.85153 | 49.89838 | 36881 ft | 480 kts | 54° |
| 2026-04-25 16:12 | 12.88549 | 49.95759 | 36884 ft | 481 kts | 54° |
| 2026-04-25 16:12 | 12.91937 | 50.01669 | 36881 ft | 480 kts | 54° |
| 2026-04-25 16:13 | 12.95328 | 50.07587 | 36883 ft | 481 kts | 54° |
| 2026-04-25 16:13 | 12.98724 | 50.13520 | 36882 ft | 480 kts | 54° |
| 2026-04-25 16:14 | 13.02103 | 50.19427 | 36882 ft | 480 kts | 54° |
| 2026-04-25 16:14 | 13.05479 | 50.25331 | 36881 ft | 481 kts | 54° |
| 2026-04-25 16:15 | 13.08303 | 50.30274 | 36882 ft | 481 kts | 54° |
| 2026-04-25 16:15 | 13.12250 | 50.37187 | 36893 ft | 481 kts | 54° |
| 2026-04-25 16:16 | 13.15633 | 50.43116 | 36895 ft | 481 kts | 54° |
| 2026-04-25 16:16 | 13.19006 | 50.49032 | 36897 ft | 481 kts | 54° |
| 2026-04-25 16:17 | 13.22415 | 50.55028 | 36894 ft | 481 kts | 54° |
| 2026-04-25 16:17 | 13.25782 | 50.60972 | 36894 ft | 481 kts | 54° |
| 2026-04-25 16:18 | 13.28866 | 50.66419 | 36889 ft | 481 kts | 54° |
| 2026-04-25 16:18 | 13.31654 | 50.71344 | 36893 ft | 481 kts | 55° |
| 2026-04-25 16:19 | 13.35588 | 50.78301 | 36891 ft | 482 kts | 55° |
| 2026-04-25 16:19 | 13.38390 | 50.83259 | 36889 ft | 481 kts | 54° |
| 2026-04-25 16:20 | 13.43977 | 50.93151 | 36887 ft | 482 kts | 55° |
| 2026-04-25 16:21 | 13.49016 | 51.02085 | 36890 ft | 481 kts | 54° |
| 2026-04-25 16:21 | 13.51822 | 51.07063 | 36890 ft | 481 kts | 55° |
| 2026-04-25 16:22 | 13.55176 | 51.13016 | 36895 ft | 482 kts | 54° |
| 2026-04-25 16:22 | 13.59067 | 51.19929 | 36894 ft | 481 kts | 54° |
| 2026-04-25 16:23 | 13.62426 | 51.25903 | 36892 ft | 480 kts | 54° |
| 2026-04-25 16:23 | 13.65812 | 51.31927 | 36900 ft | 482 kts | 54° |
| 2026-04-25 16:24 | 13.69180 | 51.37922 | 36896 ft | 482 kts | 54° |
| 2026-04-25 16:24 | 13.71949 | 51.42857 | 36898 ft | 480 kts | 54° |
| 2026-04-25 16:25 | 13.75894 | 51.49849 | 36903 ft | 481 kts | 54° |
| 2026-04-25 16:25 | 13.79324 | 51.55772 | 36906 ft | 482 kts | 53° |
| 2026-04-25 16:26 | 13.82754 | 51.61705 | 36911 ft | 481 kts | 53° |
| 2026-04-25 16:26 | 13.85587 | 51.66612 | 36911 ft | 480 kts | 54° |
| 2026-04-25 16:27 | 13.89585 | 51.73543 | 36906 ft | 482 kts | 54° |
| 2026-04-25 16:27 | 13.91857 | 51.77487 | 36907 ft | 481 kts | 54° |
| 2026-04-25 16:28 | 13.95296 | 51.83460 | 36911 ft | 481 kts | 54° |
| 2026-04-25 16:28 | 13.98152 | 51.88422 | 36916 ft | 482 kts | 54° |
| 2026-04-25 16:29 | 14.02131 | 51.95344 | 36916 ft | 481 kts | 54° |
| 2026-04-25 16:29 | 14.05549 | 52.01294 | 36922 ft | 481 kts | 53° |
| 2026-04-25 16:30 | 14.08409 | 52.06276 | 36923 ft | 482 kts | 53° |
| 2026-04-25 16:30 | 14.11827 | 52.12233 | 36936 ft | 482 kts | 54° |
| 2026-04-25 16:31 | 14.15260 | 52.18221 | 36937 ft | 482 kts | 53° |
| 2026-04-25 16:31 | 14.19248 | 52.25183 | 36937 ft | 480 kts | 53° |
| 2026-04-25 16:32 | 14.22672 | 52.31166 | 36936 ft | 482 kts | 53° |
| 2026-04-25 16:32 | 14.25494 | 52.36100 | 36935 ft | 480 kts | 53° |
| 2026-04-25 16:33 | 14.28906 | 52.42068 | 36936 ft | 482 kts | 53° |
| 2026-04-25 16:33 | 14.32297 | 52.48006 | 36934 ft | 480 kts | 54° |
| 2026-04-25 16:34 | 14.35687 | 52.53945 | 36934 ft | 480 kts | 53° |
| 2026-04-25 16:34 | 14.39082 | 52.59897 | 36935 ft | 481 kts | 53° |
| 2026-04-25 16:35 | 14.43084 | 52.66920 | 36931 ft | 480 kts | 54° |
| 2026-04-25 16:35 | 14.45912 | 52.71885 | 36930 ft | 481 kts | 54° |
| 2026-04-25 16:36 | 14.49863 | 52.78829 | 36929 ft | 481 kts | 54° |
| 2026-04-25 16:36 | 14.53252 | 52.84790 | 36929 ft | 481 kts | 54° |
| 2026-04-25 16:37 | 14.56074 | 52.89757 | 36928 ft | 480 kts | 54° |
| 2026-04-25 16:37 | 14.59438 | 52.95681 | 36929 ft | 482 kts | 54° |
| 2026-04-25 16:38 | 14.62815 | 53.01634 | 36930 ft | 480 kts | 54° |
| 2026-04-25 16:38 | 14.66855 | 53.07036 | 36924 ft | 468 kts | 38° |
| 2026-04-25 16:39 | 14.72051 | 53.11014 | 36933 ft | 459 kts | 27° |
| 2026-04-25 16:39 | 14.77511 | 53.14479 | 36927 ft | 460 kts | 27° |
| 2026-04-25 16:40 | 14.82947 | 53.17935 | 36926 ft | 458 kts | 27° |
| 2026-04-25 16:40 | 14.88411 | 53.21414 | 36923 ft | 458 kts | 27° |
| 2026-04-25 16:41 | 14.94770 | 53.25470 | 36926 ft | 459 kts | 27° |
| 2026-04-25 16:41 | 15.02050 | 53.30118 | 36924 ft | 459 kts | 27° |
| 2026-04-25 16:42 | 15.07481 | 53.33590 | 36924 ft | 459 kts | 27° |
| 2026-04-25 16:42 | 15.12948 | 53.37086 | 36936 ft | 459 kts | 27° |
| 2026-04-25 16:43 | 15.18410 | 53.40581 | 36937 ft | 459 kts | 27° |
| 2026-04-25 16:43 | 15.22278 | 53.43058 | 36937 ft | 459 kts | 27° |
| 2026-04-25 16:44 | 15.24171 | 53.44271 | 36936 ft | 460 kts | 27° |
| 2026-04-25 16:44 | 15.28017 | 53.46735 | 36937 ft | 461 kts | 27° |
| 2026-04-25 16:45 | 15.33455 | 53.50222 | 36934 ft | 460 kts | 27° |
| 2026-04-25 16:45 | 15.38741 | 53.53612 | 36935 ft | 460 kts | 27° |
| 2026-04-25 16:46 | 15.44196 | 53.57115 | 36934 ft | 461 kts | 27° |
| 2026-04-25 16:46 | 15.48687 | 53.60099 | 36932 ft | 460 kts | 28° |
| 2026-04-25 16:47 | 15.54776 | 53.64167 | 36933 ft | 460 kts | 27° |
| 2026-04-25 16:47 | 15.61048 | 53.68353 | 36928 ft | 461 kts | 28° |
| 2026-04-25 16:48 | 15.65565 | 53.71369 | 36926 ft | 461 kts | 28° |
| 2026-04-25 16:48 | 15.70973 | 53.74979 | 36924 ft | 461 kts | 28° |
| 2026-04-25 16:49 | 15.77319 | 53.79219 | 36921 ft | 461 kts | 28° |
| 2026-04-25 16:49 | 15.82737 | 53.82841 | 36925 ft | 462 kts | 28° |
| 2026-04-25 16:50 | 15.88125 | 53.86445 | 36922 ft | 462 kts | 28° |
| 2026-04-25 16:50 | 15.92631 | 53.89422 | 36921 ft | 461 kts | 27° |
| 2026-04-25 16:51 | 15.98080 | 53.93012 | 36923 ft | 462 kts | 27° |
| 2026-04-25 16:51 | 16.02600 | 53.95994 | 36923 ft | 462 kts | 27° |
| 2026-04-25 16:52 | 16.08915 | 54.00164 | 36924 ft | 463 kts | 27° |
| 2026-04-25 16:52 | 16.14372 | 54.03771 | 36940 ft | 462 kts | 27° |
| 2026-04-25 16:53 | 16.22542 | 54.09175 | 36934 ft | 462 kts | 27° |
| 2026-04-25 16:54 | 16.28005 | 54.12792 | 36933 ft | 462 kts | 27° |
| 2026-04-25 16:54 | 16.33443 | 54.16395 | 36934 ft | 462 kts | 27° |
| 2026-04-25 16:55 | 16.38860 | 54.19986 | 36929 ft | 462 kts | 27° |
| 2026-04-25 16:55 | 16.44293 | 54.23591 | 36925 ft | 462 kts | 27° |
| 2026-04-25 16:56 | 16.49777 | 54.27231 | 36929 ft | 462 kts | 27° |
| 2026-04-25 16:56 | 16.55201 | 54.30834 | 36926 ft | 462 kts | 27° |
| 2026-04-25 16:57 | 16.60661 | 54.34463 | 36924 ft | 461 kts | 27° |
| 2026-04-25 16:57 | 16.66101 | 54.38083 | 36922 ft | 463 kts | 27° |
| 2026-04-25 16:58 | 16.71566 | 54.41721 | 36918 ft | 462 kts | 27° |
| 2026-04-25 16:58 | 16.77015 | 54.45351 | 36914 ft | 461 kts | 27° |
| 2026-04-25 16:59 | 16.83357 | 54.49577 | 36908 ft | 462 kts | 27° |
| 2026-04-25 16:59 | 16.87879 | 54.52594 | 36911 ft | 463 kts | 27° |
| 2026-04-25 17:00 | 16.93278 | 54.56197 | 36903 ft | 462 kts | 27° |
| 2026-04-25 17:00 | 16.98714 | 54.59826 | 36899 ft | 461 kts | 27° |
| 2026-04-25 17:01 | 17.04145 | 54.63454 | 36920 ft | 462 kts | 27° |
| 2026-04-25 17:01 | 17.09567 | 54.67078 | 36949 ft | 462 kts | 27° |
| 2026-04-25 17:02 | 17.15023 | 54.70728 | 37004 ft | 462 kts | 27° |
| 2026-04-25 17:02 | 17.20421 | 54.74342 | 37047 ft | 463 kts | 27° |
| 2026-04-25 17:03 | 17.25842 | 54.77975 | 37095 ft | 460 kts | 27° |
| 2026-04-25 17:03 | 17.31207 | 54.81819 | 37097 ft | 465 kts | 30° |
| 2026-04-25 17:04 | 17.36457 | 54.85806 | 37084 ft | 464 kts | 30° |
| 2026-04-25 17:04 | 17.41737 | 54.89800 | 37072 ft | 465 kts | 30° |
| 2026-04-25 17:05 | 17.46998 | 54.93772 | 37055 ft | 466 kts | 30° |
| 2026-04-25 17:05 | 17.54884 | 54.99722 | 37034 ft | 463 kts | 30° |
| 2026-04-25 17:06 | 17.60146 | 55.03690 | 37012 ft | 467 kts | 30° |
| 2026-04-25 17:06 | 17.65406 | 55.07661 | 36992 ft | 465 kts | 30° |
| 2026-04-25 17:07 | 17.70643 | 55.11617 | 36985 ft | 465 kts | 30° |
| 2026-04-25 17:07 | 17.75949 | 55.15625 | 36983 ft | 468 kts | 30° |
| 2026-04-25 17:08 | 17.81223 | 55.19616 | 36978 ft | 466 kts | 30° |
| 2026-04-25 17:08 | 17.86459 | 55.23581 | 36975 ft | 465 kts | 30° |
| 2026-04-25 17:09 | 17.91720 | 55.27566 | 36974 ft | 464 kts | 30° |
| 2026-04-25 17:09 | 17.96991 | 55.31562 | 36961 ft | 467 kts | 30° |
| 2026-04-25 17:10 | 18.02284 | 55.35579 | 36962 ft | 466 kts | 30° |
| 2026-04-25 17:10 | 18.07517 | 55.39553 | 36957 ft | 464 kts | 30° |
| 2026-04-25 17:11 | 18.12916 | 55.43395 | 36964 ft | 463 kts | 27° |
| 2026-04-25 17:11 | 18.18326 | 55.47060 | 36966 ft | 462 kts | 27° |
| 2026-04-25 17:12 | 18.23757 | 55.50757 | 36965 ft | 463 kts | 27° |
| 2026-04-25 17:12 | 18.29157 | 55.54447 | 36966 ft | 461 kts | 27° |
| 2026-04-25 17:13 | 18.33687 | 55.57548 | 36956 ft | 461 kts | 27° |
| 2026-04-25 17:13 | 18.39973 | 55.61857 | 36955 ft | 463 kts | 27° |
| 2026-04-25 17:14 | 18.45340 | 55.65542 | 36949 ft | 461 kts | 27° |
| 2026-04-25 17:14 | 18.50792 | 55.69286 | 36941 ft | 465 kts | 27° |
| 2026-04-25 17:15 | 18.55898 | 55.72799 | 36936 ft | 461 kts | 27° |
| 2026-04-25 17:15 | 18.61291 | 55.76510 | 36939 ft | 462 kts | 27° |
| 2026-04-25 17:16 | 18.66678 | 55.80220 | 36940 ft | 464 kts | 27° |
| 2026-04-25 17:16 | 18.72107 | 55.83963 | 36939 ft | 463 kts | 27° |
| 2026-04-25 17:17 | 18.77488 | 55.87674 | 36933 ft | 464 kts | 27° |
| 2026-04-25 17:17 | 18.82884 | 55.91400 | 36936 ft | 462 kts | 27° |
| 2026-04-25 17:18 | 18.88284 | 55.95129 | 36924 ft | 464 kts | 27° |
| 2026-04-25 17:18 | 18.93678 | 55.98858 | 36923 ft | 463 kts | 27° |
| 2026-04-25 17:19 | 18.99439 | 56.01754 | 36918 ft | 453 kts | 12° |
| 2026-04-25 17:19 | 19.05523 | 56.03439 | 36920 ft | 451 kts | 10° |
| 2026-04-25 17:20 | 19.11607 | 56.05064 | 36932 ft | 449 kts | 9° |
| 2026-04-25 17:20 | 19.17700 | 56.06694 | 36932 ft | 450 kts | 9° |
| 2026-04-25 17:21 | 19.23798 | 56.08329 | 36928 ft | 449 kts | 10° |
| 2026-04-25 17:21 | 19.29893 | 56.09965 | 36928 ft | 452 kts | 9° |
| 2026-04-25 17:22 | 19.35022 | 56.11343 | 36923 ft | 451 kts | 9° |
| 2026-04-25 17:22 | 19.42174 | 56.13266 | 36920 ft | 452 kts | 9° |
| 2026-04-25 17:23 | 19.48282 | 56.14910 | 36917 ft | 452 kts | 9° |
| 2026-04-25 17:23 | 19.54382 | 56.16553 | 36913 ft | 452 kts | 10° |
| 2026-04-25 17:24 | 19.59926 | 56.18047 | 36917 ft | 452 kts | 10° |
| 2026-04-25 17:24 | 19.66085 | 56.19708 | 36909 ft | 453 kts | 10° |
| 2026-04-25 17:25 | 19.72233 | 56.21368 | 36905 ft | 453 kts | 9° |
| 2026-04-25 17:25 | 19.78366 | 56.23025 | 36904 ft | 453 kts | 10° |
| 2026-04-25 17:26 | 19.84512 | 56.24687 | 36907 ft | 454 kts | 10° |
| 2026-04-25 17:26 | 19.90692 | 56.26360 | 36898 ft | 453 kts | 10° |
| 2026-04-25 17:27 | 19.96838 | 56.27860 | 36899 ft | 450 kts | 3° |
| 2026-04-25 17:27 | 20.02094 | 56.28104 | 36896 ft | 448 kts | 357° |
| 2026-04-25 17:28 | 20.09421 | 56.28117 | 36893 ft | 446 kts | 356° |
| 2026-04-25 17:28 | 20.15645 | 56.28128 | 36910 ft | 448 kts | 356° |
| 2026-04-25 17:29 | 20.21941 | 56.28141 | 36909 ft | 449 kts | 356° |
| 2026-04-25 17:29 | 20.28193 | 56.28156 | 36910 ft | 447 kts | 356° |
| 2026-04-25 17:30 | 20.34470 | 56.28170 | 36909 ft | 449 kts | 356° |
| 2026-04-25 17:30 | 20.40746 | 56.28186 | 36908 ft | 449 kts | 356° |
| 2026-04-25 17:31 | 20.47071 | 56.28201 | 36905 ft | 449 kts | 356° |
| 2026-04-25 17:31 | 20.53296 | 56.28216 | 36905 ft | 450 kts | 356° |
| 2026-04-25 17:32 | 20.59525 | 56.27668 | 36903 ft | 445 kts | 349° |
| 2026-04-25 17:32 | 20.65701 | 56.26770 | 36899 ft | 445 kts | 349° |
| 2026-04-25 17:33 | 20.71928 | 56.25866 | 36900 ft | 446 kts | 349° |
| 2026-04-25 17:33 | 20.78096 | 56.24970 | 36900 ft | 447 kts | 349° |
| 2026-04-25 17:34 | 20.84274 | 56.24074 | 36898 ft | 447 kts | 349° |
| 2026-04-25 17:34 | 20.90426 | 56.23181 | 36896 ft | 446 kts | 349° |
| 2026-04-25 17:35 | 20.96610 | 56.22282 | 36893 ft | 447 kts | 349° |
| 2026-04-25 17:35 | 21.02825 | 56.21379 | 36886 ft | 447 kts | 349° |
| 2026-04-25 17:36 | 21.08963 | 56.20486 | 36888 ft | 447 kts | 349° |
| 2026-04-25 17:36 | 21.15186 | 56.19580 | 36893 ft | 448 kts | 349° |
| 2026-04-25 17:37 | 21.21350 | 56.18682 | 36893 ft | 447 kts | 349° |
| 2026-04-25 17:37 | 21.27582 | 56.17773 | 36878 ft | 450 kts | 349° |
| 2026-04-25 17:38 | 21.32757 | 56.17016 | 36877 ft | 447 kts | 349° |
| 2026-04-25 17:38 | 21.40032 | 56.15948 | 36872 ft | 448 kts | 349° |
| 2026-04-25 17:39 | 21.46199 | 56.15042 | 36873 ft | 448 kts | 348° |
| 2026-04-25 17:39 | 21.52421 | 56.14128 | 36863 ft | 450 kts | 349° |
| 2026-04-25 17:40 | 21.58663 | 56.13210 | 36862 ft | 448 kts | 349° |
| 2026-04-25 17:40 | 21.64914 | 56.12290 | 36854 ft | 449 kts | 349° |
| 2026-04-25 17:41 | 21.71113 | 56.11377 | 36849 ft | 450 kts | 348° |
| 2026-04-25 17:41 | 21.77391 | 56.10451 | 36850 ft | 451 kts | 348° |
| 2026-04-25 17:42 | 21.83616 | 56.09533 | 36849 ft | 450 kts | 348° |
| 2026-04-25 17:42 | 21.89864 | 56.08609 | 36853 ft | 453 kts | 348° |
| 2026-04-25 17:43 | 21.96128 | 56.07684 | 36844 ft | 450 kts | 348° |
| 2026-04-25 17:43 | 22.02434 | 56.06750 | 36851 ft | 454 kts | 348° |
| 2026-04-25 17:44 | 22.08721 | 56.05821 | 36843 ft | 450 kts | 348° |
| 2026-04-25 17:44 | 22.15004 | 56.04890 | 36855 ft | 455 kts | 348° |
| 2026-04-25 17:45 | 22.20267 | 56.04111 | 36855 ft | 451 kts | 348° |
| 2026-04-25 17:45 | 22.27517 | 56.03036 | 36854 ft | 452 kts | 348° |
| 2026-04-25 17:46 | 22.33841 | 56.02097 | 36856 ft | 454 kts | 348° |
| 2026-04-25 17:46 | 22.40086 | 56.01170 | 36855 ft | 453 kts | 348° |
| 2026-04-25 17:47 | 22.46349 | 56.00247 | 36859 ft | 454 kts | 348° |
| 2026-04-25 17:47 | 22.52642 | 55.99317 | 36859 ft | 454 kts | 348° |
| 2026-04-25 17:48 | 22.62033 | 55.97929 | 36863 ft | 453 kts | 348° |
| 2026-04-25 17:49 | 22.68300 | 55.97002 | 36862 ft | 453 kts | 348° |
| 2026-04-25 17:49 | 22.74566 | 55.96073 | 36864 ft | 454 kts | 348° |
| 2026-04-25 17:50 | 22.80869 | 55.95139 | 36868 ft | 456 kts | 348° |
| 2026-04-25 17:50 | 22.87184 | 55.94196 | 36869 ft | 457 kts | 348° |
| 2026-04-25 17:51 | 22.93450 | 55.93257 | 36868 ft | 456 kts | 348° |
| 2026-04-25 17:51 | 22.99774 | 55.92310 | 36866 ft | 455 kts | 348° |
| 2026-04-25 17:52 | 23.06041 | 55.91370 | 36870 ft | 457 kts | 348° |
| 2026-04-25 17:52 | 23.12373 | 55.90416 | 36886 ft | 456 kts | 348° |
| 2026-04-25 17:53 | 23.18692 | 55.89463 | 36887 ft | 456 kts | 348° |
| 2026-04-25 17:53 | 23.24970 | 55.88514 | 36904 ft | 458 kts | 348° |
| 2026-04-25 17:54 | 23.31342 | 55.87552 | 36904 ft | 456 kts | 348° |
| 2026-04-25 17:54 | 23.37644 | 55.86599 | 36903 ft | 458 kts | 348° |
| 2026-04-25 17:55 | 23.43965 | 55.85644 | 36647 ft | 449 kts | 347° |
| 2026-04-25 17:55 | 23.47040 | 55.85179 | 35902 ft | 450 kts | 347° |
| 2026-04-25 17:55 | 23.49588 | 55.84792 | 35254 ft | 451 kts | 348° |
| 2026-04-25 17:55 | 23.52700 | 55.84320 | 34672 ft | 447 kts | 348° |
| 2026-04-25 17:56 | 23.55755 | 55.83858 | 34275 ft | 440 kts | 348° |
| 2026-04-25 17:56 | 23.58796 | 55.83397 | 33824 ft | 434 kts | 347° |
| 2026-04-25 17:56 | 23.61749 | 55.82948 | 33336 ft | 432 kts | 347° |
| 2026-04-25 17:56 | 23.64786 | 55.82482 | 32774 ft | 443 kts | 348° |
| 2026-04-25 17:57 | 23.67827 | 55.82019 | 32196 ft | 446 kts | 348° |
| 2026-04-25 17:57 | 23.70963 | 55.81820 | 31603 ft | 448 kts | 358° |
| 2026-04-25 17:57 | 23.74052 | 55.82065 | 31039 ft | 447 kts | 2° |
| 2026-04-25 17:57 | 23.76111 | 55.82278 | 30658 ft | 445 kts | 2° |
| 2026-04-25 17:58 | 23.80225 | 55.82711 | 29897 ft | 442 kts | 2° |
| 2026-04-25 17:58 | 23.83250 | 55.83029 | 29342 ft | 439 kts | 2° |
| 2026-04-25 17:58 | 23.86279 | 55.83348 | 28784 ft | 437 kts | 2° |
| 2026-04-25 17:58 | 23.89301 | 55.83665 | 28228 ft | 435 kts | 2° |
| 2026-04-25 17:59 | 23.92311 | 55.83980 | 27680 ft | 433 kts | 3° |
| 2026-04-25 17:59 | 23.95325 | 55.84296 | 27126 ft | 431 kts | 3° |
| 2026-04-25 17:59 | 23.98322 | 55.84610 | 26578 ft | 429 kts | 3° |
| 2026-04-25 17:59 | 24.01274 | 55.84919 | 26052 ft | 427 kts | 2° |
| 2026-04-25 18:00 | 24.04217 | 55.85228 | 25528 ft | 424 kts | 2° |
| 2026-04-25 18:00 | 24.07142 | 55.85535 | 25003 ft | 421 kts | 3° |
| 2026-04-25 18:00 | 24.10055 | 55.85840 | 24481 ft | 418 kts | 3° |
| 2026-04-25 18:00 | 24.12987 | 55.86148 | 23946 ft | 415 kts | 3° |
| 2026-04-25 18:01 | 24.15864 | 55.86450 | 23397 ft | 412 kts | 3° |
| 2026-04-25 18:01 | 24.18722 | 55.86750 | 22852 ft | 409 kts | 3° |
| 2026-04-25 18:01 | 24.21561 | 55.87048 | 22307 ft | 407 kts | 3° |
| 2026-04-25 18:01 | 24.24341 | 55.87340 | 21987 ft | 398 kts | 3° |
| 2026-04-25 18:02 | 24.27037 | 55.87626 | 21954 ft | 383 kts | 3° |
| 2026-04-25 18:02 | 24.29689 | 55.87904 | 21840 ft | 382 kts | 3° |
| 2026-04-25 18:02 | 24.32350 | 55.88284 | 21665 ft | 384 kts | 7° |
| 2026-04-25 18:02 | 24.34983 | 55.88897 | 21474 ft | 385 kts | 15° |
| 2026-04-25 18:03 | 24.37483 | 55.90028 | 21286 ft | 386 kts | 27° |
| 2026-04-25 18:03 | 24.39703 | 55.91639 | 21103 ft | 387 kts | 38° |
| 2026-04-25 18:03 | 24.41762 | 55.93624 | 20802 ft | 396 kts | 41° |
| 2026-04-25 18:03 | 24.43853 | 55.95711 | 20311 ft | 413 kts | 41° |
| 2026-04-25 18:04 | 24.45972 | 55.97830 | 19803 ft | 411 kts | 41° |
| 2026-04-25 18:04 | 24.48057 | 55.99916 | 19302 ft | 407 kts | 41° |
| 2026-04-25 18:04 | 24.50133 | 56.01992 | 18814 ft | 403 kts | 41° |
| 2026-04-25 18:04 | 24.52204 | 56.04065 | 18327 ft | 399 kts | 41° |
| 2026-04-25 18:05 | 24.54254 | 56.06115 | 17736 ft | 398 kts | 41° |
| 2026-04-25 18:05 | 24.56285 | 56.08154 | 17131 ft | 398 kts | 42° |
| 2026-04-25 18:05 | 24.58385 | 56.10113 | 16525 ft | 395 kts | 34° |
| 2026-04-25 18:05 | 24.60715 | 56.11611 | 15978 ft | 387 kts | 23° |
| 2026-04-25 18:06 | 24.63233 | 56.12575 | 15492 ft | 378 kts | 12° |
| 2026-04-25 18:06 | 24.65782 | 56.13127 | 15046 ft | 372 kts | 9° |
| 2026-04-25 18:06 | 24.68329 | 56.13621 | 14570 ft | 370 kts | 9° |
| 2026-04-25 18:06 | 24.70888 | 56.14109 | 14089 ft | 368 kts | 9° |
| 2026-04-25 18:07 | 24.73390 | 56.14579 | 13621 ft | 365 kts | 9° |
| 2026-04-25 18:07 | 24.75886 | 56.15045 | 13344 ft | 361 kts | 9° |
| 2026-04-25 18:07 | 24.78382 | 56.15290 | 13098 ft | 361 kts | 356° |
| 2026-04-25 18:07 | 24.80804 | 56.14815 | 12897 ft | 349 kts | 340° |
| 2026-04-25 18:08 | 24.83040 | 56.13841 | 12772 ft | 336 kts | 335° |
| 2026-04-25 18:08 | 24.85134 | 56.12841 | 12664 ft | 324 kts | 334° |
| 2026-04-25 18:08 | 24.87182 | 56.11844 | 12545 ft | 313 kts | 334° |
| 2026-04-25 18:08 | 24.89134 | 56.10886 | 12419 ft | 307 kts | 334° |
| 2026-04-25 18:09 | 24.91098 | 56.09919 | 12121 ft | 309 kts | 334° |
| 2026-04-25 18:09 | 24.93068 | 56.08949 | 11767 ft | 308 kts | 334° |
| 2026-04-25 18:09 | 24.95006 | 56.07994 | 11409 ft | 307 kts | 334° |
| 2026-04-25 18:09 | 24.96308 | 56.07341 | 11162 ft | 305 kts | 330° |
| 2026-04-25 18:10 | 24.98371 | 56.05306 | 10655 ft | 297 kts | 298° |
| 2026-04-25 18:10 | 24.99147 | 56.03247 | 10302 ft | 293 kts | 286° |
| 2026-04-25 18:10 | 24.99756 | 56.01112 | 10069 ft | 287 kts | 285° |
| 2026-04-25 18:10 | 25.00338 | 55.99037 | 9873 ft | 282 kts | 285° |
| 2026-04-25 18:11 | 25.00918 | 55.96959 | 9531 ft | 282 kts | 285° |
| 2026-04-25 18:11 | 25.01491 | 55.94907 | 9180 ft | 282 kts | 285° |
| 2026-04-25 18:11 | 25.02066 | 55.92852 | 8818 ft | 282 kts | 285° |
| 2026-04-25 18:11 | 25.02644 | 55.90778 | 8476 ft | 281 kts | 286° |
| 2026-04-25 18:12 | 25.03214 | 55.88734 | 8129 ft | 281 kts | 286° |
| 2026-04-25 18:12 | 25.03786 | 55.86680 | 7777 ft | 279 kts | 287° |
| 2026-04-25 18:12 | 25.04349 | 55.84660 | 7415 ft | 276 kts | 287° |
| 2026-04-25 18:12 | 25.04916 | 55.82623 | 7093 ft | 273 kts | 287° |
| 2026-04-25 18:13 | 25.05461 | 55.80663 | 6776 ft | 270 kts | 287° |
| 2026-04-25 18:13 | 25.06011 | 55.78685 | 6410 ft | 267 kts | 287° |
| 2026-04-25 18:13 | 25.06544 | 55.76767 | 6052 ft | 261 kts | 288° |
| 2026-04-25 18:14 | 25.07597 | 55.72972 | 5320 ft | 257 kts | 288° |
| 2026-04-25 18:14 | 25.08118 | 55.71096 | 4943 ft | 255 kts | 288° |
| 2026-04-25 18:14 | 25.08628 | 55.69257 | 4649 ft | 252 kts | 288° |
| 2026-04-25 18:14 | 25.09145 | 55.67393 | 4374 ft | 254 kts | 288° |
| 2026-04-25 18:15 | 25.09658 | 55.65544 | 4082 ft | 252 kts | 288° |
| 2026-04-25 18:15 | 25.10207 | 55.63714 | 3984 ft | 251 kts | 295° |
| 2026-04-25 18:15 | 25.11054 | 55.62008 | 3976 ft | 252 kts | 302° |
| 2026-04-25 18:15 | 25.11971 | 55.60368 | 3972 ft | 250 kts | 302° |
| 2026-04-25 18:16 | 25.12838 | 55.58753 | 3824 ft | 244 kts | 301° |
| 2026-04-25 18:16 | 25.13698 | 55.57149 | 3509 ft | 239 kts | 302° |
| 2026-04-25 18:16 | 25.15355 | 55.54163 | 2941 ft | 219 kts | 302° |
| 2026-04-25 18:17 | 25.16154 | 55.52758 | 2681 ft | 211 kts | 302° |
| 2026-04-25 18:17 | 25.16911 | 55.51425 | 2423 ft | 202 kts | 302° |
| 2026-04-25 18:17 | 25.17642 | 55.50129 | 2157 ft | 195 kts | 302° |
| 2026-04-25 18:17 | 25.18340 | 55.48881 | 1918 ft | 181 kts | 302° |
| 2026-04-25 18:18 | 25.18974 | 55.47747 | 1707 ft | 168 kts | 301° |
| 2026-04-25 18:18 | 25.19552 | 55.46713 | 1503 ft | 148 kts | 301° |
| 2026-04-25 18:18 | 25.20079 | 55.45766 | 1321 ft | 142 kts | 301° |
| 2026-04-25 18:18 | 25.20596 | 55.44838 | 1143 ft | 141 kts | 302° |
| 2026-04-25 18:19 | 25.21112 | 55.43914 | 963 ft | 142 kts | 302° |
| 2026-04-25 18:19 | 25.21634 | 55.42978 | 776 ft | 141 kts | 302° |
| 2026-04-25 18:19 | 25.22145 | 55.42061 | 592 ft | 140 kts | 302° |
| 2026-04-25 18:19 | 25.22656 | 55.41154 | 398 ft | 139 kts | 302° |
| 2026-04-25 18:20 | 25.23168 | 55.40247 | 215 ft | 139 kts | 302° |
| 2026-04-25 18:20 | 25.23669 | 55.39349 | 55 ft | 137 kts | 301° |
| 2026-04-25 18:20 | 25.24101 | 55.38569 | 49 ft | 98 kts | 302° |
| 2026-04-25 18:20 | 25.24383 | 55.38060 | 47 ft | 63 kts | 302° |
| 2026-04-25 18:21 | 25.24595 | 55.37681 | 42 ft | 54 kts | 302° |
| 2026-04-25 18:21 | 25.24758 | 55.37359 | 37 ft | 37 kts | 288° |
| 2026-04-25 18:21 | 25.24783 | 55.37151 | 35 ft | 12 kts | 272° |
| 2026-04-25 18:21 | 25.24787 | 55.37058 | 36 ft | 10 kts | 272° |
| 2026-04-25 18:22 | 25.24796 | 55.36968 | 35 ft | 13 kts | 285° |
| 2026-04-25 18:22 | 25.24807 | 55.36904 | 33 ft | 12 kts | 259° |
| 2026-04-25 18:22 | 25.24713 | 55.36817 | 32 ft | 15 kts | 210° |
| 2026-04-25 18:22 | 25.24617 | 55.36753 | 32 ft | 17 kts | 212° |
| 2026-04-25 18:23 | 25.24584 | 55.36732 | 32 ft | 0 kts | 211° |
| 2026-04-25 18:23 | 25.24582 | 55.36730 | 32 ft | 2 kts | 211° |
| 2026-04-25 18:23 | 25.24549 | 55.36708 | 32 ft | 8 kts | 212° |
| 2026-04-25 18:24 | 25.24546 | 55.36663 | 30 ft | 7 kts | 314° |
| 2026-04-25 18:24 | 25.24576 | 55.36627 | 29 ft | 3 kts | 312° |